Map

Track Data

SID SEASON NUMBER BASIN SUBBASIN NAME ISO_TIME NATURE LAT LON WMO_WIND WMO_PRES WMO_AGENCY TRACK_TYPE DIST2LAND LANDFALL IFLAG USA_AGENCY USA_ATCF_ID USA_LAT USA_LON USA_RECORD USA_STATUS USA_WIND USA_PRES USA_SSHS USA_R34_NE USA_R34_SE USA_R34_SW USA_R34_NW USA_R50_NE USA_R50_SE USA_R50_SW USA_R50_NW USA_R64_NE USA_R64_SE USA_R64_SW USA_R64_NW USA_POCI USA_ROCI USA_RMW USA_EYE TOKYO_LAT TOKYO_LON TOKYO_GRADE TOKYO_WIND TOKYO_PRES TOKYO_R50_DIR TOKYO_R50_LONG TOKYO_R50_SHORT TOKYO_R30_DIR TOKYO_R30_LONG TOKYO_R30_SHORT TOKYO_LAND CMA_LAT CMA_LON CMA_CAT CMA_WIND CMA_PRES HKO_LAT HKO_LON HKO_CAT HKO_WIND HKO_PRES NEWDELHI_LAT NEWDELHI_LON NEWDELHI_GRADE NEWDELHI_WIND NEWDELHI_PRES NEWDELHI_CI NEWDELHI_DP NEWDELHI_POCI REUNION_LAT REUNION_LON REUNION_TYPE REUNION_WIND REUNION_PRES REUNION_TNUM REUNION_CI REUNION_RMW REUNION_R34_NE REUNION_R34_SE REUNION_R34_SW REUNION_R34_NW REUNION_R50_NE REUNION_R50_SE REUNION_R50_SW REUNION_R50_NW REUNION_R64_NE REUNION_R64_SE REUNION_R64_SW REUNION_R64_NW BOM_LAT BOM_LON BOM_TYPE BOM_WIND BOM_PRES BOM_TNUM BOM_CI BOM_RMW BOM_R34_NE BOM_R34_SE BOM_R34_SW BOM_R34_NW BOM_R50_NE BOM_R50_SE BOM_R50_SW BOM_R50_NW BOM_R64_NE BOM_R64_SE BOM_R64_SW BOM_R64_NW BOM_ROCI BOM_POCI BOM_EYE BOM_POS_METHOD BOM_PRES_METHOD NADI_LAT NADI_LON NADI_CAT NADI_WIND NADI_PRES WELLINGTON_LAT WELLINGTON_LON WELLINGTON_WIND WELLINGTON_PRES DS824_LAT DS824_LON DS824_STAGE DS824_WIND DS824_PRES TD9636_LAT TD9636_LON TD9636_STAGE TD9636_WIND TD9636_PRES TD9635_LAT TD9635_LON TD9635_WIND TD9635_PRES TD9635_ROCI NEUMANN_LAT NEUMANN_LON NEUMANN_CLASS NEUMANN_WIND NEUMANN_PRES MLC_LAT MLC_LON MLC_CLASS MLC_WIND MLC_PRES USA_GUST BOM_GUST BOM_GUST_PER REUNION_GUST REUNION_GUST_PER USA_SEAHGT USA_SEARAD_NE USA_SEARAD_SE USA_SEARAD_SW USA_SEARAD_NW STORM_SPEED STORM_DIR
1919210N19134 1919 19 WP MM NOT_NAMED 1919-07-28 21:00:00 NR 18.6000 134.100 main 1161 1107 __________O___ -1 18.6000 134.100 4 32 312
1919210N19134 1919 19 WP MM NOT_NAMED 1919-07-29 00:00:00 NR 19.6673 132.830 main 1104 1015 __________P___ -1 19.6673 132.830 4 31 312
1919210N19134 1919 19 WP MM NOT_NAMED 1919-07-29 03:00:00 NR 20.6841 131.609 main 1007 933 __________P___ -1 20.6841 131.609 4 29 312
1919210N19134 1919 19 WP MM NOT_NAMED 1919-07-29 06:00:00 NR 21.6081 130.509 main 928 819 __________P___ -1 21.6081 130.509 4 25 313
1919210N19134 1919 19 WP MM NOT_NAMED 1919-07-29 09:00:00 NR 22.4000 129.600 main 819 741 __________O___ -1 22.4000 129.600 4 20 314
1919210N19134 1919 19 WP MM NOT_NAMED 1919-07-29 12:00:00 NR 23.0350 128.934 main 731 679 __________P___ -1 23.0350 128.934 4 15 318
1919210N19134 1919 19 WP MM NOT_NAMED 1919-07-29 15:00:00 NR 23.5392 128.472 main 679 639 __________P___ -1 23.5392 128.472 4 12 322
1919210N19134 1919 19 WP MM NOT_NAMED 1919-07-29 18:00:00 NR 23.9491 128.149 main 629 600 __________P___ -1 23.9491 128.149 4 9 325
1919210N19134 1919 19 WP MM NOT_NAMED 1919-07-29 21:00:00 NR 24.3000 127.900 main 600 565 __________O___ -1 24.3000 127.900 4 9 326
1919210N19134 1919 19 WP MM NOT_NAMED 1919-07-30 00:00:00 NR 24.6781 127.604 main 565 543 __________P___ -1 24.6781 127.604 4 9 325
1919210N19134 1919 19 WP MM NOT_NAMED 1919-07-30 03:00:00 NR 25.0042 127.366 main 543 523 __________P___ -1 25.0042 127.366 4 7 327
1919210N19134 1919 19 WP MM NOT_NAMED 1919-07-30 06:00:00 NR 25.2783 127.170 main 524 504 __________P___ -1 25.2783 127.170 4 6 326
1919210N19134 1919 19 WP MM NOT_NAMED 1919-07-30 09:00:00 NR 25.5000 127.000 main 505 496 __________O___ -1 25.5000 127.000 4 5 321
1919210N19134 1919 19 WP MM NOT_NAMED 1919-07-30 12:00:00 NR 25.6425 126.844 main 486 478 __________P___ -1 25.6425 126.844 4 4 312
1919210N19134 1919 19 WP MM NOT_NAMED 1919-07-30 15:00:00 NR 25.7420 126.706 main 478 470 __________P___ -1 25.7420 126.706 4 3 309
1919210N19134 1919 19 WP MM NOT_NAMED 1919-07-30 18:00:00 NR 25.8456 126.565 main 470 455 __________P___ -1 25.8456 126.565 4 4 313
1919210N19134 1919 19 WP MM NOT_NAMED 1919-07-30 21:00:00 NR 26.0000 126.400 main 455 441 __________O___ -1 26.0000 126.400 4 6 321
1919210N19134 1919 19 WP MM NOT_NAMED 1919-07-31 00:00:00 NR 26.2962 126.160 main 445 429 __________P___ -1 26.2962 126.160 4 8 325
1919210N19134 1919 19 WP MM NOT_NAMED 1919-07-31 03:00:00 NR 26.6429 125.894 main 429 419 __________P___ -1 26.6429 125.894 4 8 326
1919210N19134 1919 19 WP MM NOT_NAMED 1919-07-31 06:00:00 NR 26.9931 125.631 main 419 389 __________P___ -1 26.9931 125.631 4 8 326
1919210N19134 1919 19 WP MM NOT_NAMED 1919-07-31 09:00:00 NR 27.3000 125.400 main 389 374 __________O___ -1 27.3000 125.400 4 6 326
1919210N19134 1919 19 WP MM NOT_NAMED 1919-07-31 12:00:00 NR 27.4796 125.258 main 374 360 __________P___ -1 27.4796 125.258 4 4 325
1919210N19134 1919 19 WP MM NOT_NAMED 1919-07-31 15:00:00 NR 27.6144 125.148 main 351 337 __________P___ -1 27.6144 125.148 4 3 324
1919210N19134 1919 19 WP MM NOT_NAMED 1919-07-31 18:00:00 NR 27.7421 125.039 main 337 317 __________P___ -1 27.7421 125.039 4 4 322
1919210N19134 1919 19 WP MM NOT_NAMED 1919-07-31 21:00:00 NR 27.9000 124.900 main 317 290 __________O___ -1 27.9000 124.900 4 5 317
1919210N19134 1919 19 WP MM NOT_NAMED 1919-08-01 00:00:00 NR 28.1193 124.646 main 281 250 __________P___ -1 28.1193 124.646 4 7 315
1919210N19134 1919 19 WP MM NOT_NAMED 1919-08-01 03:00:00 NR 28.3757 124.364 main 250 211 __________P___ -1 28.3757 124.364 4 7 319
1919210N19134 1919 19 WP MM NOT_NAMED 1919-08-01 06:00:00 NR 28.6692 124.100 main 211 185 __________P___ -1 28.6692 124.100 4 7 327
1919210N19134 1919 19 WP MM NOT_NAMED 1919-08-01 09:00:00 NR 29.0000 123.900 main 185 174 __________O___ -1 29.0000 123.900 4 7 340
1919210N19134 1919 19 WP MM NOT_NAMED 1919-08-01 12:00:00 NR 29.3678 123.811 main 175 175 __________P___ -1 29.3678 123.811 4 8 354
1919210N19134 1919 19 WP MM NOT_NAMED 1919-08-01 15:00:00 NR 29.7696 123.794 main 183 183 __________P___ -1 29.7696 123.794 4 8 0
1919210N19134 1919 19 WP MM NOT_NAMED 1919-08-01 18:00:00 NR 30.1867 123.830 main 188 188 __________P___ -1 30.1867 123.830 4 8 6
1919210N19134 1919 19 WP MM NOT_NAMED 1919-08-01 21:00:00 NR 30.6000 123.900 main 193 190 __________O___ -1 30.6000 123.900 4 8 8
1919210N19134 1919 19 WP MM NOT_NAMED 1919-08-02 00:00:00 NR 31.0025 123.967 main 200 200 __________P___ -1 31.0025 123.967 4 8 10
1919210N19134 1919 19 WP MM NOT_NAMED 1919-08-02 03:00:00 NR 31.3950 124.062 main 210 207 __________P___ -1 31.3950 124.062 4 8 13
1919210N19134 1919 19 WP MM NOT_NAMED 1919-08-02 06:00:00 NR 31.7650 124.176 main 217 217 __________P___ -1 31.7650 124.176 4 7 16
1919210N19134 1919 19 WP MM NOT_NAMED 1919-08-02 09:00:00 NR 32.1000 124.300 main 222 209 __________O___ -1 32.1000 124.300 4 6 12
1919210N19134 1919 19 WP MM NOT_NAMED 1919-08-02 12:00:00 NR 32.3436 124.320 main 209 189 __________P___ -1 32.3436 124.320 4 5 7
1919210N19134 1919 19 WP MM NOT_NAMED 1919-08-02 15:00:00 NR 32.5595 124.362 main 184 167 __________P___ -1 32.5595 124.362 4 5 18
1919210N19134 1919 19 WP MM NOT_NAMED 1919-08-02 18:00:00 NR 32.7957 124.497 main 167 131 __________P___ -1 32.7957 124.497 4 7 34
1919210N19134 1919 19 WP MM NOT_NAMED 1919-08-02 21:00:00 NR 33.1000 124.800 main 131 86 __________O___ -1 33.1000 124.800 4 11 43
1919210N19134 1919 19 WP MM NOT_NAMED 1919-08-03 00:00:00 NR 33.5798 125.384 main 81 42 __________P___ -1 33.5798 125.384 4 15 48
1919210N19134 1919 19 WP MM NOT_NAMED 1919-08-03 03:00:00 NR 34.1194 126.140 main 42 0 __________P___ -1 34.1194 126.140 4 17 51
1919210N19134 1919 19 WP MM NOT_NAMED 1919-08-03 06:00:00 NR 34.6487 126.977 main 0 0 __________P___ -1 34.6487 126.977 4 17 54
1919210N19134 1919 19 WP MM NOT_NAMED 1919-08-03 09:00:00 NR 35.1000 127.800 main 0 0 __________O___ -1 35.1000 127.800 4 14 58
1919210N19134 1919 19 WP MM NOT_NAMED 1919-08-03 12:00:00 NR 35.3739 128.415 main 0 0 __________P___ -1 35.3739 128.415 4 11 64
1919210N19134 1919 19 WP MM NOT_NAMED 1919-08-03 15:00:00 NR 35.5688 128.999 main 0 0 __________P___ -1 35.5688 128.999 4 10 70
1919210N19134 1919 19 WP MM NOT_NAMED 1919-08-03 18:00:00 NR 35.7296 129.608 main 14 14 __________P___ -1 35.7296 129.608 4 11 73
1919210N19134 1919 19 WP MM NOT_NAMED 1919-08-03 21:00:00 NR 35.9000 130.300 main 63 63 __________O___ -1 35.9000 130.300 4 13 73
1919210N19134 1919 19 WP MM NOT_NAMED 1919-08-04 00:00:00 NR 36.1267 131.201 main 143 109 __________P___ -1 36.1267 131.201 4 16 73
1919210N19134 1919 19 WP MM NOT_NAMED 1919-08-04 03:00:00 NR 36.3672 132.185 main 117 106 __________P___ -1 36.3672 132.185 4 17 73
1919210N19134 1919 19 WP MM NOT_NAMED 1919-08-04 06:00:00 NR 36.6235 133.176 main 122 122 __________P___ -1 36.6235 133.176 4 16 71
1919210N19134 1919 19 WP MM NOT_NAMED 1919-08-04 09:00:00 NR 36.9000 134.100 main 147 145 __________O___ -1 36.9000 134.100 4 14 66
1919210N19134 1919 19 WP MM NOT_NAMED 1919-08-04 12:00:00 NR 37.1859 134.747 main 159 127 __________P___ -1 37.1859 134.747 4 11 59
1919210N19134 1919 19 WP MM NOT_NAMED 1919-08-04 15:00:00 NR 37.4984 135.333 main 127 90 __________P___ -1 37.4984 135.333 4 12 56
1919210N19134 1919 19 WP MM NOT_NAMED 1919-08-04 18:00:00 NR 37.8373 135.977 main 83 75 __________P___ -1 37.8373 135.977 4 14 59
1919210N19134 1919 19 WP MM NOT_NAMED 1919-08-04 21:00:00 NR 38.2000 136.800 main 89 89 __________O___ -1 38.2000 136.800 4 17 65
1919210N19134 1919 19 WP MM NOT_NAMED 1919-08-05 00:00:00 NR 38.5559 137.959 main 113 41 __________P___ -1 38.5559 137.959 4 21 70
1919210N19134 1919 19 WP MM NOT_NAMED 1919-08-05 03:00:00 NR 38.9241 139.313 main 34 0 __________P___ -1 38.9241 139.313 4 23 71
1919210N19134 1919 19 WP MM NOT_NAMED 1919-08-05 06:00:00 NR 39.3043 140.786 main 0 0 __________P___ -1 39.3043 140.786 4 24 71
1919210N19134 1919 19 WP MM NOT_NAMED 1919-08-05 09:00:00 NR 39.7000 142.300 main 27 27 __________O___ -1 39.7000 142.300 4 24 71
1919210N19134 1919 19 WP MM NOT_NAMED 1919-08-05 12:00:00 NR 40.1152 143.793 main 156 156 __________P___ -1 40.1152 143.793 4 24 70
1919210N19134 1919 19 WP MM NOT_NAMED 1919-08-05 15:00:00 NR 40.5437 145.264 main 234 227 __________P___ -1 40.5437 145.264 4 24 69
1919210N19134 1919 19 WP MM NOT_NAMED 1919-08-05 18:00:00 NR 40.9756 146.729 main 262 262 __________P___ -1 40.9756 146.729 4 24 69
1919210N19134 1919 19 WP MM NOT_NAMED 1919-08-05 21:00:00 NR 41.4000 148.200 main 298 __________O___ -1 41.4000 148.200 4 24 69

Digital Typhoon Data and Search

About IBTrACS Database

This database is a web-friendly format of International Best Track Archive for Climate Stewardship (IBTrACS), a global best track data archive curated by NOAA dating back to 1842.

Updated: 2021-10-21